createdAt,value
2019-04-26T00:00:07.531Z,14.80
2019-04-26T00:07:49.325Z,15.00
2019-04-26T00:10:27.091Z,15.00
2019-04-26T00:13:06.047Z,15.10
2019-04-26T00:15:48.655Z,15.10
2019-04-26T00:18:17.464Z,15.10
2019-04-26T00:20:46.327Z,15.00
2019-04-26T00:23:16.104Z,15.00
2019-04-26T00:28:13.374Z,14.90
2019-04-26T00:30:42.475Z,14.80
2019-04-26T00:33:12.553Z,14.90
2019-04-26T00:35:47.770Z,14.80
2019-04-26T00:38:13.248Z,14.70
2019-04-26T00:40:42.671Z,14.60
2019-04-26T00:43:12.770Z,14.40
2019-04-26T00:45:41.706Z,14.20
2019-04-26T00:50:38.943Z,14.10
2019-04-26T00:53:07.656Z,14.20
2019-04-26T00:55:36.394Z,14.10
2019-04-26T00:58:05.439Z,14.00
2019-04-26T01:00:34.254Z,13.90
2019-04-26T01:03:02.919Z,13.90
2019-04-26T01:05:33.425Z,13.50
2019-04-26T01:10:30.406Z,13.40
2019-04-26T01:12:59.090Z,13.40
2019-04-26T01:15:27.809Z,13.40
2019-04-26T01:17:56.487Z,13.40
2019-04-26T01:20:25.313Z,13.30
2019-04-26T01:22:54.373Z,13.40
2019-04-26T01:25:42.448Z,13.40
2019-04-26T01:28:14.205Z,13.40
2019-04-26T01:30:43.016Z,13.30
2019-04-26T01:35:40.192Z,13.40
2019-04-26T01:38:09.047Z,13.40
2019-04-26T01:40:38.193Z,13.30
2019-04-26T01:43:14.699Z,13.30
2019-04-26T01:45:47.784Z,13.20
2019-04-26T01:48:40.668Z,12.90
2019-04-26T01:53:37.680Z,12.90
2019-04-26T01:56:06.510Z,12.80
2019-04-26T01:58:35.218Z,12.70
2019-04-26T02:01:26.081Z,12.60
2019-04-26T02:03:54.849Z,12.50
2019-04-26T02:06:30.514Z,12.50
2019-04-26T02:08:55.174Z,12.60
2019-04-26T02:11:24.991Z,12.50
2019-04-26T02:13:53.843Z,12.30
2019-04-26T02:16:23.683Z,12.50
2019-04-26T02:18:52.525Z,12.50
2019-04-26T02:21:31.981Z,12.50
2019-04-26T02:24:19.870Z,12.60
2019-04-26T02:26:48.706Z,12.60
2019-04-26T02:29:19.030Z,12.60
2019-04-26T02:31:51.174Z,12.60
2019-04-26T02:34:19.919Z,12.60
2019-04-26T02:36:58.114Z,12.30
2019-04-26T02:41:50.169Z,12.10
2019-04-26T02:44:21.993Z,11.90
2019-04-26T02:47:19.187Z,11.90
2019-04-26T02:49:48.769Z,11.80
2019-04-26T02:52:45.101Z,11.80
2019-04-26T02:55:16.553Z,11.80
2019-04-26T03:00:18.689Z,11.70
2019-04-26T03:03:07.595Z,11.60
2019-04-26T03:05:37.566Z,11.60
2019-04-26T03:08:18.314Z,11.60
2019-04-26T03:10:51.921Z,11.60
2019-04-26T03:13:40.103Z,11.60
2019-04-26T03:16:21.802Z,11.80
2019-04-26T03:19:04.884Z,11.80
2019-04-26T03:21:46.205Z,11.70
2019-04-26T03:24:25.713Z,11.80
2019-04-26T03:27:20.067Z,11.80
2019-04-26T03:32:54.015Z,11.90
2019-04-26T03:35:36.978Z,12.10
2019-04-26T03:38:23.214Z,12.20
2019-04-26T03:41:17.638Z,12.40
2019-04-26T03:46:50.390Z,12.40
2019-04-26T03:50:15.309Z,12.60
2019-04-26T03:56:12.993Z,12.50
2019-04-26T03:59:17.897Z,12.70
2019-04-26T04:01:57.328Z,12.60
2019-04-26T04:04:37.017Z,12.50
2019-04-26T04:07:05.376Z,12.40
2019-04-26T04:09:34.106Z,12.40
2019-04-26T04:14:55.515Z,12.20
2019-04-26T04:17:48.273Z,12.30
2019-04-26T04:21:06.678Z,12.40
2019-04-26T04:24:06.808Z,12.40
2019-04-26T04:27:05.179Z,12.30
2019-04-26T04:29:55.298Z,12.10
2019-04-26T04:32:31.230Z,12.00
2019-04-26T04:35:01.409Z,12.10
2019-04-26T04:37:33.307Z,12.10
2019-04-26T04:40:13.985Z,12.00
2019-04-26T04:45:59.260Z,11.90
2019-04-26T04:48:49.237Z,11.90
2019-04-26T04:51:31.833Z,11.90
2019-04-26T04:54:11.395Z,11.80
2019-04-26T04:57:07.399Z,11.70
2019-04-26T05:00:28.013Z,11.60
2019-04-26T05:03:08.135Z,11.60
2019-04-26T05:06:07.693Z,11.70
2019-04-26T05:09:00.247Z,11.70
2019-04-26T05:12:22.231Z,11.70
2019-04-26T05:15:21.123Z,11.60
2019-04-26T05:17:56.184Z,11.70
2019-04-26T05:20:58.851Z,11.90
2019-04-26T05:24:24.399Z,11.90
2019-04-26T05:27:43.494Z,11.80
2019-04-26T05:31:16.383Z,11.90
2019-04-26T05:34:21.555Z,11.90
2019-04-26T05:39:27.567Z,12.00
2019-04-26T05:42:35.568Z,12.10
2019-04-26T05:45:56.016Z,12.10
2019-04-26T05:48:53.579Z,12.20
2019-04-26T05:52:04.619Z,12.20
2019-04-26T05:55:08.879Z,12.30
2019-04-26T05:57:54.367Z,12.30
2019-04-26T06:03:47.590Z,10.80
2019-04-26T06:06:25.993Z,12.40
2019-04-26T06:09:46.497Z,12.50
2019-04-26T06:12:27.255Z,12.60
2019-04-26T06:15:28.929Z,12.50
2019-04-26T06:18:18.762Z,12.60
2019-04-26T06:24:25.333Z,12.60
2019-04-26T06:27:14.248Z,12.60
2019-04-26T06:30:14.022Z,12.70
2019-04-26T06:33:03.180Z,12.80
2019-04-26T06:35:29.723Z,12.80
2019-04-26T06:38:21.118Z,12.80
2019-04-26T06:41:21.875Z,12.90
2019-04-26T06:43:55.553Z,13.00
2019-04-26T06:47:09.703Z,13.10
2019-04-26T06:52:49.769Z,12.80
2019-04-26T06:55:25.275Z,12.80
2019-04-26T06:58:02.877Z,12.80
2019-04-26T07:00:48.868Z,12.70
2019-04-26T07:03:35.851Z,12.80
2019-04-26T07:06:06.586Z,13.10
2019-04-26T07:11:51.839Z,13.20
2019-04-26T07:14:39.369Z,13.40
2019-04-26T07:17:14.912Z,13.70
2019-04-26T07:20:31.511Z,13.80
2019-04-26T07:23:36.142Z,13.90
2019-04-26T07:26:22.563Z,13.90
2019-04-26T07:29:29.746Z,14.00
2019-04-26T07:34:52.237Z,14.10
2019-04-26T07:38:04.750Z,14.20
2019-04-26T07:41:22.497Z,14.40
2019-04-26T07:44:09.723Z,14.50
2019-04-26T07:46:59.063Z,14.40
2019-04-26T07:50:04.055Z,14.40
2019-04-26T07:53:14.867Z,14.30
2019-04-26T07:55:51.405Z,14.30
2019-04-26T07:58:51.939Z,14.20
2019-04-26T08:01:41.887Z,14.50
2019-04-26T08:04:17.191Z,14.30
2019-04-26T08:06:52.608Z,14.40
2019-04-26T08:09:26.833Z,14.40
2019-04-26T08:11:55.647Z,14.50
2019-04-26T08:14:34.890Z,14.20
2019-04-26T08:17:22.811Z,14.00
2019-04-26T08:20:21.885Z,14.00
2019-04-26T08:22:54.567Z,14.00
2019-04-26T08:25:23.331Z,14.10
2019-04-26T08:27:52.148Z,14.10
2019-04-26T08:30:22.730Z,14.00
2019-04-26T08:32:53.604Z,13.90
2019-04-26T08:35:29.634Z,13.70
2019-04-26T08:40:31.191Z,13.70
2019-04-26T08:43:18.128Z,13.50
2019-04-26T08:46:10.075Z,13.50
2019-04-26T08:49:06.138Z,13.60
2019-04-26T08:51:33.030Z,13.60
2019-04-26T08:54:01.987Z,13.50
2019-04-26T08:56:33.075Z,13.20
2019-04-26T09:01:51.491Z,13.40
2019-04-26T09:04:25.961Z,13.20
2019-04-26T09:07:01.975Z,13.20
2019-04-26T09:09:32.377Z,13.10
2019-04-26T09:12:03.868Z,13.20
2019-04-26T09:14:32.297Z,13.10
2019-04-26T09:17:01.321Z,13.10
2019-04-26T09:22:12.787Z,13.10
2019-04-26T09:25:05.147Z,13.10
2019-04-26T09:27:50.449Z,13.30
2019-04-26T09:30:34.266Z,13.10
2019-04-26T09:33:15.126Z,13.00
2019-04-26T09:35:43.887Z,13.10
2019-04-26T09:38:12.579Z,13.10
2019-04-26T09:40:41.996Z,13.20
2019-04-26T09:43:25.274Z,13.30
2019-04-26T09:46:25.027Z,15.80
2019-04-26T09:49:09.458Z,13.30
2019-04-26T09:51:39.151Z,13.50
2019-04-26T09:54:09.134Z,13.50
2019-04-26T09:56:37.830Z,13.60
2019-04-26T09:59:06.789Z,13.40
2019-04-26T10:01:35.674Z,13.20
2019-04-26T10:04:04.375Z,13.30
2019-04-26T10:06:33.063Z,13.40
2019-04-26T10:09:01.810Z,13.50
2019-04-26T10:11:39.611Z,13.60
2019-04-26T10:16:56.974Z,13.50
2019-04-26T10:19:43.002Z,13.60
2019-04-26T10:22:11.759Z,13.60
2019-04-26T10:24:40.487Z,13.80
2019-04-26T10:27:09.282Z,13.90
2019-04-26T10:29:38.138Z,14.00
2019-04-26T10:32:06.968Z,14.10
2019-04-26T10:34:35.646Z,14.20
2019-04-26T10:37:06.181Z,14.20
2019-04-26T10:44:35.734Z,14.40
2019-04-26T10:47:05.738Z,14.10
2019-04-26T10:49:38.415Z,14.00
2019-04-26T10:52:11.902Z,14.10
2019-04-26T10:54:41.092Z,13.80
2019-04-26T10:57:30.425Z,13.50
2019-04-26T11:00:02.013Z,13.30
2019-04-26T11:04:59.021Z,13.50
2019-04-26T11:07:27.726Z,13.60
2019-04-26T11:09:56.414Z,13.70
2019-04-26T11:12:25.111Z,13.70
2019-04-26T11:14:56.939Z,13.70
2019-04-26T11:17:24.297Z,13.70
2019-04-26T11:19:52.995Z,13.50
2019-04-26T11:22:28.984Z,13.00
2019-04-26T11:27:22.126Z,12.30
2019-04-26T11:29:53.730Z,12.20
2019-04-26T11:32:21.294Z,12.30
2019-04-26T11:34:50.001Z,12.20
2019-04-26T11:37:19.424Z,12.20
2019-04-26T11:39:48.484Z,12.10
2019-04-26T11:42:17.241Z,12.30
2019-04-26T11:44:45.984Z,12.50
2019-04-26T11:49:43.169Z,12.20
2019-04-26T11:52:11.881Z,12.20
2019-04-26T11:54:40.581Z,12.10
2019-04-26T11:57:12.104Z,12.00
2019-04-26T11:59:39.722Z,11.80
2019-04-26T12:02:08.525Z,11.80
2019-04-26T12:04:53.859Z,11.90
2019-04-26T12:09:58.577Z,11.80
2019-04-26T12:12:27.542Z,11.80
2019-04-26T12:14:56.232Z,11.70
2019-04-26T12:17:27.026Z,11.20
2019-04-26T12:19:55.549Z,11.20
2019-04-26T12:22:24.226Z,11.20
2019-04-26T12:24:53.043Z,11.10
2019-04-26T12:27:21.803Z,11.10
2019-04-26T12:32:18.936Z,11.00
2019-04-26T12:34:47.628Z,10.30
2019-04-26T12:37:19.859Z,9.90
2019-04-26T12:39:46.996Z,9.80
2019-04-26T12:42:16.291Z,9.80
2019-04-26T12:44:52.106Z,10.10
2019-04-26T12:47:24.611Z,9.80
2019-04-26T12:54:51.660Z,10.20
2019-04-26T12:57:20.606Z,10.30
2019-04-26T12:59:49.314Z,10.30
2019-04-26T13:02:20.932Z,10.50
2019-04-26T13:04:48.534Z,10.60
2019-04-26T13:07:24.001Z,10.60
2019-04-26T13:15:56.601Z,10.30
2019-04-26T13:18:25.323Z,10.50
2019-04-26T13:20:54.023Z,10.50
2019-04-26T13:23:25.442Z,10.60
2019-04-26T13:25:55.501Z,10.50
2019-04-26T13:28:23.627Z,10.50
2019-04-26T13:30:52.508Z,10.50
2019-04-26T13:33:23.198Z,10.00
2019-04-26T13:36:02.542Z,10.20
2019-04-26T13:40:50.598Z,10.00
2019-04-26T13:43:22.697Z,10.10
2019-04-26T13:46:07.210Z,9.80
2019-04-26T13:48:59.104Z,9.40
2019-04-26T13:51:28.838Z,9.20
2019-04-26T13:53:57.531Z,9.20
2019-04-26T13:56:26.283Z,8.90
2019-04-26T14:01:25.019Z,9.00
2019-04-26T14:03:54.041Z,9.20
2019-04-26T14:06:22.729Z,9.00
2019-04-26T14:08:53.983Z,8.70
2019-04-26T14:11:28.167Z,8.70
2019-04-26T14:13:55.387Z,8.70
2019-04-26T14:16:22.898Z,8.70
2019-04-26T14:18:51.736Z,9.00
2019-04-26T14:24:13.765Z,9.10
2019-04-26T14:26:45.815Z,9.00
2019-04-26T14:29:14.528Z,9.10
2019-04-26T14:31:43.292Z,9.20
2019-04-26T14:36:43.626Z,9.30
2019-04-26T14:39:14.798Z,9.30
2019-04-26T14:44:15.738Z,9.50
2019-04-26T14:46:48.504Z,9.70
2019-04-26T14:49:11.308Z,9.80
2019-04-26T14:51:40.707Z,9.80
2019-04-26T14:54:11.506Z,10.00
2019-04-26T14:56:51.724Z,10.20
2019-04-26T14:59:12.174Z,10.20
2019-04-26T15:01:58.043Z,9.90
2019-04-26T15:04:53.356Z,9.70
2019-04-26T15:12:19.830Z,9.70
2019-04-26T15:14:49.388Z,9.80
2019-04-26T15:17:20.132Z,10.00
2019-04-26T15:19:49.645Z,10.00
2019-04-26T15:22:18.371Z,10.00
2019-04-26T15:24:47.073Z,10.10
2019-04-26T15:27:16.010Z,10.10
2019-04-26T15:32:13.178Z,10.10
2019-04-26T15:34:42.199Z,10.10
2019-04-26T15:37:10.926Z,9.90
2019-04-26T15:39:58.368Z,10.00
2019-04-26T15:42:36.163Z,10.00
2019-04-26T15:45:14.997Z,10.10
2019-04-26T15:47:57.673Z,10.20
2019-04-26T15:53:00.154Z,10.20
2019-04-26T15:55:33.843Z,10.20
2019-04-26T15:58:02.627Z,10.20
2019-04-26T16:00:32.721Z,10.10
2019-04-26T16:03:03.842Z,10.10
2019-04-26T16:05:32.407Z,10.20
2019-04-26T16:08:04.340Z,10.20
2019-04-26T16:10:37.047Z,10.30
2019-04-26T16:15:32.971Z,10.40
2019-04-26T16:18:03.935Z,10.40
2019-04-26T16:20:38.098Z,10.40
2019-04-26T16:23:06.160Z,10.50
2019-04-26T16:25:34.436Z,10.50
2019-04-26T16:28:22.817Z,10.60
2019-04-26T16:31:10.986Z,10.70
2019-04-26T16:33:40.161Z,10.70
2019-04-26T16:36:08.964Z,10.60
2019-04-26T16:41:07.189Z,10.70
2019-04-26T16:43:40.356Z,10.70
2019-04-26T16:46:06.452Z,10.70
2019-04-26T16:48:35.382Z,10.70
2019-04-26T16:51:08.442Z,10.70
2019-04-26T16:53:45.846Z,10.70
2019-04-26T16:56:04.962Z,10.80
2019-04-26T17:03:38.299Z,10.70
2019-04-26T17:06:10.829Z,10.70
2019-04-26T17:08:43.319Z,10.70
2019-04-26T17:11:06.302Z,10.70
2019-04-26T17:13:36.233Z,10.70
2019-04-26T17:16:05.410Z,10.60
2019-04-26T17:18:34.138Z,10.60
2019-04-26T17:23:44.258Z,10.60
2019-04-26T17:26:23.814Z,10.70
2019-04-26T17:28:55.342Z,10.60
2019-04-26T17:31:23.068Z,10.60
2019-04-26T17:33:51.786Z,10.60
2019-04-26T17:36:20.475Z,10.60
2019-04-26T17:38:50.547Z,10.50
2019-04-26T17:41:19.447Z,10.60
2019-04-26T17:43:52.018Z,10.60
2019-04-26T17:48:50.637Z,10.30
2019-04-26T17:51:22.972Z,10.60
2019-04-26T17:53:58.825Z,10.60
2019-04-26T17:56:21.535Z,10.50
2019-04-26T17:58:54.310Z,10.60
2019-04-26T18:01:41.152Z,10.50
2019-04-26T18:03:55.599Z,10.50
2019-04-26T18:06:29.620Z,10.30
2019-04-26T18:11:24.981Z,10.40
2019-04-26T18:13:52.998Z,10.60
2019-04-26T18:16:25.068Z,10.80
2019-04-26T18:19:05.311Z,10.90
2019-04-26T18:22:00.070Z,11.00
2019-04-26T18:24:32.339Z,11.00
2019-04-26T18:27:00.586Z,10.90
2019-04-26T18:29:30.419Z,10.60
2019-04-26T18:34:30.550Z,10.40
2019-04-26T18:37:01.973Z,10.50
2019-04-26T18:39:30.473Z,10.40
2019-04-26T18:42:02.957Z,10.30
2019-04-26T18:44:37.856Z,10.40
2019-04-26T18:47:05.345Z,10.30
2019-04-26T18:49:34.061Z,10.30
2019-04-26T18:52:03.777Z,10.10
2019-04-26T18:57:09.490Z,10.10
2019-04-26T18:59:37.410Z,10.10
2019-04-26T19:02:06.251Z,10.00
2019-04-26T19:04:34.955Z,10.10
2019-04-26T19:07:03.655Z,10.10
2019-04-26T19:09:45.263Z,10.20
2019-04-26T19:12:02.917Z,10.30
2019-04-26T19:17:37.583Z,10.20
2019-04-26T19:20:25.455Z,10.20
2019-04-26T19:22:58.665Z,10.10
2019-04-26T19:25:29.797Z,10.10
2019-04-26T19:27:58.886Z,10.00
2019-04-26T19:30:28.367Z,10.00
2019-04-26T19:32:57.110Z,10.00
2019-04-26T19:35:25.826Z,9.90
2019-04-26T19:40:22.983Z,10.00
2019-04-26T19:42:57.169Z,10.10
2019-04-26T19:45:45.924Z,10.00
2019-04-26T19:48:20.716Z,10.00
2019-04-26T19:50:53.351Z,10.00
2019-04-26T19:53:42.358Z,10.00
2019-04-26T19:56:36.511Z,9.90
2019-04-26T19:59:05.287Z,9.80
2019-04-26T20:04:02.584Z,9.70
2019-04-26T20:06:32.246Z,9.70
2019-04-26T20:09:02.012Z,9.70
2019-04-26T20:11:31.677Z,9.70
2019-04-26T20:14:01.157Z,9.70
2019-04-26T20:16:32.447Z,9.60
2019-04-26T20:19:01.383Z,9.60
2019-04-26T20:21:32.616Z,9.50
2019-04-26T20:26:31.505Z,9.60
2019-04-26T20:29:00.242Z,9.70
2019-04-26T20:31:54.089Z,9.80
2019-04-26T20:34:22.855Z,9.70
2019-04-26T20:36:52.165Z,9.70
2019-04-26T20:39:23.991Z,9.70
2019-04-26T20:42:01.274Z,9.70
2019-04-26T20:44:28.265Z,9.70
2019-04-26T20:46:53.585Z,9.50
2019-04-26T20:51:51.904Z,9.50
2019-04-26T20:54:22.365Z,9.60
2019-04-26T20:56:55.400Z,9.70
2019-04-26T20:59:23.645Z,9.70
2019-04-26T21:02:03.309Z,9.70
2019-04-26T21:04:35.083Z,9.60
2019-04-26T21:06:53.697Z,9.40
2019-04-26T21:09:22.606Z,9.70
2019-04-26T21:14:21.365Z,9.60
2019-04-26T21:16:50.565Z,9.70
2019-04-26T21:19:20.271Z,9.70
2019-04-26T21:21:50.447Z,9.80
2019-04-26T21:24:23.391Z,9.70
2019-04-26T21:27:09.894Z,9.80
2019-04-26T21:30:03.350Z,9.70
2019-04-26T21:32:45.311Z,9.70
2019-04-26T21:35:15.863Z,9.70
2019-04-26T21:40:30.290Z,9.60
2019-04-26T21:43:00.524Z,9.60
2019-04-26T21:45:31.057Z,9.50
2019-04-26T21:48:02.706Z,9.60
2019-04-26T21:50:35.761Z,9.70
2019-04-26T21:53:05.197Z,9.80
2019-04-26T21:55:35.712Z,9.60
2019-04-26T21:58:02.687Z,9.60
2019-04-26T22:03:18.562Z,9.60
2019-04-26T22:05:49.846Z,9.70
2019-04-26T22:08:24.498Z,9.60
2019-04-26T22:10:49.812Z,9.70
2019-04-26T22:13:24.384Z,9.70
2019-04-26T22:15:59.063Z,9.70
2019-04-26T22:18:33.257Z,9.40
2019-04-26T22:24:06.021Z,9.40
2019-04-26T22:26:37.976Z,9.50
2019-04-26T22:29:08.021Z,9.40
2019-04-26T22:31:37.914Z,9.40
2019-04-26T22:34:08.525Z,9.40
2019-04-26T22:36:36.592Z,9.40
2019-04-26T22:39:10.621Z,9.40
2019-04-26T22:41:39.365Z,9.40
2019-04-26T22:44:13.994Z,9.40
2019-04-26T22:49:25.655Z,9.10
2019-04-26T22:51:54.343Z,9.40
2019-04-26T22:54:24.832Z,9.30
2019-04-26T22:56:53.921Z,9.20
2019-04-26T22:59:23.019Z,9.20
2019-04-26T23:01:53.594Z,9.10
2019-04-26T23:04:26.243Z,9.10
2019-04-26T23:06:56.154Z,9.40
2019-04-26T23:11:59.041Z,9.00
2019-04-26T23:14:34.895Z,8.90
2019-04-26T23:17:35.155Z,8.90
2019-04-26T23:20:23.404Z,8.90
2019-04-26T23:22:53.694Z,8.90
2019-04-26T23:25:23.819Z,9.00
2019-04-26T23:27:56.715Z,8.90
2019-04-26T23:30:23.164Z,8.70
2019-04-26T23:35:21.898Z,8.70
2019-04-26T23:37:50.598Z,8.80
2019-04-26T23:40:20.744Z,8.80
2019-04-26T23:42:51.606Z,8.80
2019-04-26T23:45:20.242Z,8.80
2019-04-26T23:47:48.952Z,8.90
2019-04-26T23:50:17.648Z,8.90
2019-04-26T23:52:49.186Z,8.80
2019-04-26T23:57:45.168Z,8.70
